ACA954 CYUL-TFFF
Flight info
| Callsign | ACA954 |
|---|---|
| Flight time | N/A |
| Altitude | 36000 |
| Route | OVAXO DCT VIRKA DCT REGGI DCT KEYNN DCT ALBOW/N0455F370 DCT ISLES DCT SQUAD/M078F370 DCT DARUX L459 TALSU/M078F390 L459 KEEKA/N0448F390 L329 ZPATA DCT GORET DCT EMOLA EMOLA2X |
| Aircraft | B38M/M-SDE1FGHILORVWXY/HB1 |
Departure
| Time | 2026-05-07 20:30 |
|---|---|
| Airport | Montreal / Pierre Elliott Trudeau International Airport (CYUL) |
Arrival
| Time | N/A |
|---|---|
| Airport | Martinique Aimé Césaire International Airport (TFFF) |
| Time | Latitude | Longitude | Altitude | Speed | Heading |
|---|---|---|---|---|---|
| 2026-05-07 20:09 | 45.45927 | -73.75230 | 107 ft | 0 kts | 178° |
| 2026-05-07 20:09 | 45.45927 | -73.75229 | 107 ft | 0 kts | 178° |
| 2026-05-07 20:10 | 45.45927 | -73.75230 | 107 ft | 0 kts | 178° |
| 2026-05-07 20:12 | 45.45928 | -73.75230 | 107 ft | 0 kts | 178° |
| 2026-05-07 20:17 | 45.45941 | -73.75230 | 105 ft | 4 kts | 178° |
| 2026-05-07 20:18 | 45.45967 | -73.75232 | 107 ft | 2 kts | 178° |
| 2026-05-07 20:18 | 45.45988 | -73.75227 | 106 ft | 4 kts | 214° |
| 2026-05-07 20:18 | 45.46002 | -73.75199 | 107 ft | 4 kts | 256° |
| 2026-05-07 20:18 | 45.46005 | -73.75175 | 107 ft | 0 kts | 268° |
| 2026-05-07 20:21 | 45.46005 | -73.75177 | 107 ft | 1 kts | 268° |
| 2026-05-07 20:22 | 45.46007 | -73.75222 | 107 ft | 9 kts | 284° |
| 2026-05-07 20:22 | 45.46042 | -73.75327 | 107 ft | 13 kts | 299° |
| 2026-05-07 20:22 | 45.46129 | -73.75360 | 104 ft | 15 kts | 32° |
| 2026-05-07 20:22 | 45.46145 | -73.75223 | 104 ft | 14 kts | 88° |
| 2026-05-07 20:23 | 45.46151 | -73.75080 | 105 ft | 14 kts | 84° |
| 2026-05-07 20:23 | 45.46154 | -73.74944 | 107 ft | 14 kts | 88° |
| 2026-05-07 20:23 | 45.46158 | -73.74797 | 106 ft | 16 kts | 87° |
| 2026-05-07 20:23 | 45.46161 | -73.74628 | 106 ft | 18 kts | 93° |
| 2026-05-07 20:24 | 45.46127 | -73.74474 | 106 ft | 17 kts | 84° |
| 2026-05-07 20:24 | 45.46133 | -73.74306 | 105 ft | 18 kts | 88° |
| 2026-05-07 20:24 | 45.46139 | -73.74126 | 107 ft | 18 kts | 87° |
| 2026-05-07 20:24 | 45.46202 | -73.73976 | 106 ft | 19 kts | 43° |
| 2026-05-07 20:25 | 45.46300 | -73.73847 | 108 ft | 19 kts | 42° |
| 2026-05-07 20:25 | 45.46399 | -73.73718 | 110 ft | 19 kts | 42° |
| 2026-05-07 20:25 | 45.46499 | -73.73586 | 112 ft | 20 kts | 42° |
| 2026-05-07 20:25 | 45.46602 | -73.73451 | 113 ft | 20 kts | 43° |
| 2026-05-07 20:26 | 45.46706 | -73.73314 | 115 ft | 21 kts | 42° |
| 2026-05-07 20:26 | 45.46812 | -73.73176 | 115 ft | 21 kts | 43° |
| 2026-05-07 20:26 | 45.46919 | -73.73035 | 116 ft | 21 kts | 42° |
| 2026-05-07 20:26 | 45.47027 | -73.72893 | 118 ft | 21 kts | 41° |
| 2026-05-07 20:27 | 45.47138 | -73.72750 | 118 ft | 22 kts | 42° |
| 2026-05-07 20:27 | 45.47251 | -73.72600 | 119 ft | 22 kts | 43° |
| 2026-05-07 20:27 | 45.47349 | -73.72472 | 117 ft | 19 kts | 41° |
| 2026-05-07 20:27 | 45.47449 | -73.72341 | 121 ft | 20 kts | 40° |
| 2026-05-07 20:28 | 45.47551 | -73.72208 | 122 ft | 20 kts | 41° |
| 2026-05-07 20:28 | 45.47657 | -73.72068 | 120 ft | 21 kts | 44° |
| 2026-05-07 20:28 | 45.47757 | -73.71937 | 124 ft | 18 kts | 43° |
| 2026-05-07 20:28 | 45.47837 | -73.71835 | 123 ft | 11 kts | 39° |
| 2026-05-07 20:29 | 45.47872 | -73.71742 | 124 ft | 12 kts | 109° |
| 2026-05-07 20:29 | 45.47823 | -73.71646 | 123 ft | 12 kts | 130° |
| 2026-05-07 20:29 | 45.47766 | -73.71559 | 125 ft | 11 kts | 140° |
| 2026-05-07 20:29 | 45.47708 | -73.71595 | 127 ft | 10 kts | 222° |
| 2026-05-07 20:30 | 45.47544 | -73.71812 | 124 ft | 68 kts | 223° |
| 2026-05-07 20:30 | 45.47018 | -73.72503 | 119 ft | 135 kts | 223° |
| 2026-05-07 20:30 | 45.46213 | -73.73557 | 354 ft | 169 kts | 229° |
| 2026-05-07 20:30 | 45.45353 | -73.74732 | 1277 ft | 171 kts | 227° |
| 2026-05-07 20:31 | 45.44478 | -73.75880 | 2164 ft | 174 kts | 229° |
| 2026-05-07 20:31 | 45.43548 | -73.77131 | 2605 ft | 195 kts | 229° |
| 2026-05-07 20:31 | 45.42492 | -73.78563 | 2973 ft | 222 kts | 227° |
| 2026-05-07 20:31 | 45.41302 | -73.80094 | 3564 ft | 241 kts | 218° |
| 2026-05-07 20:32 | 45.39671 | -73.80915 | 4414 ft | 256 kts | 189° |
| 2026-05-07 20:32 | 45.37859 | -73.80563 | 5265 ft | 273 kts | 168° |
| 2026-05-07 20:32 | 45.36065 | -73.79717 | 6142 ft | 277 kts | 166° |
| 2026-05-07 20:32 | 45.34276 | -73.78611 | 6933 ft | 288 kts | 146° |
| 2026-05-07 20:33 | 45.32994 | -73.76403 | 7844 ft | 295 kts | 122° |
| 2026-05-07 20:33 | 45.31857 | -73.73941 | 8585 ft | 300 kts | 130° |
| 2026-05-07 20:33 | 45.30587 | -73.71570 | 9462 ft | 303 kts | 130° |
| 2026-05-07 20:33 | 45.29307 | -73.69162 | 10237 ft | 309 kts | 129° |
| 2026-05-07 20:34 | 45.27978 | -73.66659 | 10659 ft | 327 kts | 129° |
| 2026-05-07 20:34 | 45.26569 | -73.64004 | 10922 ft | 347 kts | 129° |
| 2026-05-07 20:34 | 45.25080 | -73.61199 | 11269 ft | 363 kts | 129° |
| 2026-05-07 20:34 | 45.23543 | -73.58301 | 11744 ft | 373 kts | 129° |
| 2026-05-07 20:35 | 45.21972 | -73.55337 | 12473 ft | 376 kts | 129° |
| 2026-05-07 20:35 | 45.20394 | -73.52359 | 13157 ft | 381 kts | 129° |
| 2026-05-07 20:35 | 45.18792 | -73.49337 | 13838 ft | 385 kts | 130° |
| 2026-05-07 20:35 | 45.17174 | -73.46290 | 14442 ft | 389 kts | 130° |
| 2026-05-07 20:36 | 45.15537 | -73.43210 | 15073 ft | 393 kts | 131° |
| 2026-05-07 20:36 | 45.13882 | -73.40097 | 15628 ft | 398 kts | 131° |
| 2026-05-07 20:36 | 45.12202 | -73.36942 | 16234 ft | 402 kts | 132° |
| 2026-05-07 20:36 | 45.10509 | -73.33766 | 16824 ft | 407 kts | 132° |
| 2026-05-07 20:37 | 45.08794 | -73.30552 | 17410 ft | 411 kts | 133° |
| 2026-05-07 20:37 | 45.07064 | -73.27312 | 17966 ft | 416 kts | 133° |
| 2026-05-07 20:37 | 45.05308 | -73.24029 | 18447 ft | 420 kts | 133° |
| 2026-05-07 20:37 | 45.03561 | -73.20768 | 18966 ft | 422 kts | 134° |
| 2026-05-07 20:38 | 45.01490 | -73.17837 | 19450 ft | 410 kts | 153° |
| 2026-05-07 20:38 | 44.99104 | -73.15779 | 19881 ft | 409 kts | 158° |
| 2026-05-07 20:38 | 44.96623 | -73.13798 | 20376 ft | 410 kts | 159° |
| 2026-05-07 20:38 | 44.94114 | -73.11848 | 20881 ft | 413 kts | 160° |
| 2026-05-07 20:39 | 44.91581 | -73.09910 | 21386 ft | 415 kts | 160° |
| 2026-05-07 20:39 | 44.89024 | -73.07973 | 21855 ft | 418 kts | 161° |
| 2026-05-07 20:39 | 44.86454 | -73.06037 | 22350 ft | 420 kts | 161° |
| 2026-05-07 20:39 | 44.83861 | -73.04088 | 22749 ft | 424 kts | 161° |
| 2026-05-07 20:40 | 44.81254 | -73.02131 | 22837 ft | 424 kts | 162° |
| 2026-05-07 20:40 | 44.78647 | -73.00175 | 22949 ft | 424 kts | 162° |
| 2026-05-07 20:40 | 44.76045 | -72.98227 | 23452 ft | 425 kts | 162° |
| 2026-05-07 20:40 | 44.73423 | -72.96265 | 23815 ft | 428 kts | 162° |